Urb Las Campinas I, Puerto Rico
Current Conditions -  °F | °C
As of 2:56 AM on Friday 31 Oct 2014 (Local Time) from TJSJ Reporting Station
Few Clouds Few Clouds  
Wind Chill: 79°   Ceiling: Unl
Heat Index: 83°   Visibility: 10mi
Dew Point: 76°   Wind: 0mph
Humidity: 90%   Direction: NA
Pressure: 29.81"   Gusts: NA
Location:  18.1853°N, 65.8667°W
Report Text: TJSJ 310656Z 00000KT 10SM FEW055 26/24 A2981 RMK AO2 SLP093 T02610244
Loading
Personal Weather Stations






























Interactive Weather Map
Tropical Storm Tracking
New forecast layout! Learn more

10-Day Weather Forecast

Advertisements
Track Severe Weather on mobile